Time;durP1;ratioP1;P1;durP2;ratioP2;P2;SDS_P1;SDS_P2;PMS_P1;PMS_P2;Temp;Humidity;BMP_temperature;BMP_pressure;BME280_temperature;BME280_humidity;BME280_pressure;Samples;Min_cycle;Max_cycle;Signal;HPM_P1;HPM_P2
2024/03/24 00:01:07;;;;;;;1999.90;999.90;;;9.80;99.90;;;;;;5032313;28;20043;-67
2024/03/24 00:03:37;;;;;;;1999.90;999.90;;;9.80;99.90;;;;;;5032466;28;20021;-67
2024/03/24 00:06:03;;;;;;;1999.90;999.90;;;9.80;99.90;;;;;;5032405;28;20499;-67
2024/03/24 00:08:29;;;;;;;1999.90;999.90;;;9.80;99.90;;;;;;5033775;28;20017;-67
2024/03/24 00:10:54;;;;;;;1999.90;999.90;;;9.80;99.90;;;;;;5036561;28;20036;-71
2024/03/24 00:13:20;;;;;;;1999.90;999.90;;;9.80;99.90;;;;;;5036668;28;20029;-71
2024/03/24 00:15:46;;;;;;;1999.90;999.90;;;9.80;99.90;;;;;;5036088;28;20061;-67
2024/03/24 00:18:12;;;;;;;1999.90;999.90;;;9.90;99.90;;;;;;5036054;28;20091;-66
2024/03/24 00:20:37;;;;;;;1999.90;999.90;;;9.90;99.90;;;;;;5035833;28;20105;-66
2024/03/24 00:23:03;;;;;;;1999.90;999.90;;;10.00;99.90;;;;;;5035375;28;20411;-67
2024/03/24 00:25:29;;;;;;;1999.90;999.90;;;10.00;99.90;;;;;;5036041;28;20028;-71
2024/03/24 00:27:55;;;;;;;1999.90;999.90;;;10.00;99.90;;;;;;5036185;28;20018;-70
2024/03/24 00:30:20;;;;;;;1999.90;999.90;;;10.10;99.90;;;;;;5035878;28;20096;-67
2024/03/24 00:32:48;;;;;;;1999.90;999.90;;;10.10;99.90;;;;;;5036229;28;20056;-70
2024/03/24 00:35:14;;;;;;;1999.90;999.90;;;10.10;99.90;;;;;;5035991;28;20030;-66
2024/03/24 00:37:39;;;;;;;1999.90;999.90;;;10.10;99.90;;;;;;5035735;28;20481;-71
2024/03/24 00:40:06;;;;;;;1999.90;999.90;;;10.10;99.90;;;;;;5035863;28;20036;-71
2024/03/24 00:42:31;;;;;;;1999.90;999.90;;;10.00;99.90;;;;;;5035665;28;20026;-66
2024/03/24 00:44:57;;;;;;;1999.90;999.90;;;10.00;99.90;;;;;;5035904;28;20021;-66
2024/03/24 00:47:23;;;;;;;1999.90;999.90;;;9.90;99.90;;;;;;5035976;28;20487;-66
2024/03/24 00:49:48;;;;;;;1999.90;999.90;;;9.90;99.90;;;;;;5035820;28;20075;-70
2024/03/24 00:52:14;;;;;;;1999.90;999.90;;;9.70;99.90;;;;;;5035449;28;20509;-71
2024/03/24 00:54:40;;;;;;;1999.90;999.90;;;9.70;99.90;;;;;;5035503;28;20025;-66
2024/03/24 00:57:05;;;;;;;1999.90;999.90;;;9.60;99.90;;;;;;5035395;28;20112;-67
2024/03/24 00:59:31;;;;;;;1999.90;999.90;;;9.50;99.90;;;;;;5034637;28;20030;-66
2024/03/24 01:01:56;;;;;;;1999.90;999.90;;;9.50;99.90;;;;;;5035561;28;20132;-66
2024/03/24 01:04:22;;;;;;;1999.90;999.90;;;9.50;99.90;;;;;;5035513;28;20026;-66
2024/03/24 01:06:48;;;;;;;1999.90;999.90;;;9.50;99.90;;;;;;5035164;28;20029;-71
2024/03/24 01:09:13;;;;;;;1999.90;999.90;;;9.40;99.90;;;;;;5035259;28;20029;-71
2024/03/24 01:11:40;;;;;;;1999.90;999.90;;;9.40;99.90;;;;;;5035274;28;20389;-66
2024/03/24 01:14:06;;;;;;;1999.90;999.90;;;9.40;99.90;;;;;;5035234;28;20030;-66
2024/03/24 01:16:32;;;;;;;1999.90;999.90;;;9.40;99.90;;;;;;5035331;28;20037;-66
2024/03/24 01:18:58;;;;;;;1999.90;999.90;;;9.40;99.90;;;;;;5034904;28;20184;-71
2024/03/24 01:21:24;;;;;;;1999.90;999.90;;;9.40;99.90;;;;;;5033612;28;20040;-67
2024/03/24 01:23:50;;;;;;;1999.90;999.90;;;9.50;99.90;;;;;;5035081;28;20017;-67
2024/03/24 01:26:16;;;;;;;1999.90;999.90;;;9.50;99.90;;;;;;5035078;28;20025;-67
2024/03/24 01:28:41;;;;;;;1999.90;999.90;;;9.60;99.90;;;;;;5035005;28;20384;-67
2024/03/24 01:31:07;;;;;;;1999.90;999.90;;;9.60;99.90;;;;;;5034897;28;20034;-71
2024/03/24 01:33:33;;;;;;;1999.90;999.90;;;9.60;99.90;;;;;;5034671;28;20092;-71
2024/03/24 01:35:58;;;;;;;1999.90;999.90;;;9.60;99.90;;;;;;5034870;28;20104;-71
2024/03/24 01:38:24;;;;;;;1999.90;999.90;;;9.60;99.90;;;;;;5035051;28;20136;-71
2024/03/24 01:40:50;;;;;;;1999.90;999.90;;;9.60;99.90;;;;;;5034587;28;20037;-66
2024/03/24 01:43:16;;;;;;;1999.90;999.90;;;9.60;99.90;;;;;;5034609;28;20439;-71
2024/03/24 01:45:42;;;;;;;1999.90;999.90;;;9.60;99.90;;;;;;5034796;28;20395;-71
2024/03/24 01:48:09;;;;;;;1999.90;999.90;;;9.60;99.90;;;;;;5034814;28;20053;-67
2024/03/24 01:50:35;;;;;;;1999.90;999.90;;;9.60;99.90;;;;;;5034823;28;20033;-71
2024/03/24 01:53:01;;;;;;;1999.90;999.90;;;9.60;99.90;;;;;;5034429;28;20025;-67
2024/03/24 01:55:27;;;;;;;1999.90;999.90;;;9.50;99.90;;;;;;5034287;28;20025;-71
2024/03/24 01:57:53;;;;;;;1999.90;999.90;;;9.40;99.90;;;;;;5034217;28;20029;-71
2024/03/24 02:00:19;;;;;;;1999.90;999.90;;;9.40;99.90;;;;;;5034307;28;20034;-66
2024/03/24 02:02:45;;;;;;;1999.90;999.90;;;9.40;99.90;;;;;;5034311;28;20049;-71
2024/03/24 02:05:10;;;;;;;1999.90;999.90;;;9.40;99.90;;;;;;5034451;28;20017;-66
2024/03/24 02:07:36;;;;;;;1999.90;999.90;;;9.40;99.90;;;;;;5034123;28;20030;-71
2024/03/24 02:10:03;;;;;;;1999.90;999.90;;;9.40;99.90;;;;;;5034223;28;20048;-71
2024/03/24 02:12:28;;;;;;;1999.90;999.90;;;9.40;99.90;;;;;;5034128;28;20492;-71
2024/03/24 02:14:54;;;;;;;1999.90;999.90;;;9.50;99.90;;;;;;5034464;28;20048;-67
2024/03/24 02:17:20;;;;;;;1999.90;999.90;;;9.60;99.90;;;;;;5033729;28;20040;-67
2024/03/24 02:19:45;;;;;;;1999.90;999.90;;;9.60;99.90;;;;;;5033899;28;20558;-71
2024/03/24 02:22:11;;;;;;;1999.90;999.90;;;9.60;99.90;;;;;;5033519;28;20048;-71
2024/03/24 02:24:36;;;;;;;1999.90;999.90;;;9.70;99.90;;;;;;5032813;28;20022;-71
2024/03/24 02:27:02;;;;;;;1999.90;999.90;;;9.80;99.90;;;;;;5033942;28;20391;-67
2024/03/24 02:29:28;;;;;;;1999.90;999.90;;;9.80;99.90;;;;;;5033755;28;20022;-71
2024/03/24 02:31:53;;;;;;;1999.90;999.90;;;9.80;99.90;;;;;;5033555;28;20388;-67
2024/03/24 02:34:21;;;;;;;1999.90;999.90;;;9.80;99.90;;;;;;5033214;28;20029;-67
2024/03/24 02:36:47;;;;;;;1999.90;999.90;;;9.80;99.90;;;;;;5033503;28;20026;-71
2024/03/24 02:39:13;;;;;;;1999.90;999.90;;;9.80;99.90;;;;;;5033783;28;20495;-71
2024/03/24 02:41:38;;;;;;;1999.90;999.90;;;9.80;99.90;;;;;;5033357;28;20033;-67
2024/03/24 02:44:04;;;;;;;1999.90;999.90;;;9.80;99.90;;;;;;5033601;28;20026;-67
2024/03/24 02:46:30;;;;;;;1999.90;999.90;;;9.70;99.90;;;;;;5033642;28;20026;-66
2024/03/24 02:48:55;;;;;;;1999.90;999.90;;;9.60;99.90;;;;;;5033513;28;20491;-67
2024/03/24 02:51:21;;;;;;;1999.90;999.90;;;9.60;99.90;;;;;;5033250;28;20030;-71
2024/03/24 02:53:47;;;;;;;1999.90;999.90;;;9.60;99.90;;;;;;5033544;28;20033;-71
2024/03/24 02:56:12;;;;;;;1999.90;999.90;;;9.50;99.90;;;;;;5033183;28;20560;-67
2024/03/24 02:58:38;;;;;;;1999.90;999.90;;;9.40;99.90;;;;;;5033233;28;20030;-71
2024/03/24 03:01:04;;;;;;;1999.90;999.90;;;9.40;99.90;;;;;;5033155;28;20025;-67
2024/03/24 03:03:29;;;;;;;1999.90;999.90;;;9.40;99.90;;;;;;5033388;28;20029;-71
2024/03/24 03:05:55;;;;;;;1999.90;999.90;;;9.30;99.90;;;;;;5033298;28;20060;-66
2024/03/24 03:08:21;;;;;;;1999.90;999.90;;;9.30;99.90;;;;;;5032993;28;20036;-67
2024/03/24 03:10:46;;;;;;;1999.90;999.90;;;9.40;99.90;;;;;;5033038;28;20022;-71
2024/03/24 03:13:12;;;;;;;1999.90;999.90;;;9.50;99.90;;;;;;5033247;28;20488;-71
2024/03/24 03:15:37;;;;;;;1999.90;999.90;;;9.50;99.90;;;;;;5033330;28;20033;-66
2024/03/24 03:18:06;;;;;;;1999.90;999.90;;;9.60;99.90;;;;;;5032920;28;20106;-71
2024/03/24 03:20:32;;;;;;;1999.90;999.90;;;9.60;99.90;;;;;;5032793;28;20034;-71
2024/03/24 03:22:58;;;;;;;1999.90;999.90;;;9.70;99.90;;;;;;5032732;28;20029;-71
2024/03/24 03:25:23;;;;;;;1999.90;999.90;;;9.60;99.90;;;;;;5032822;28;20029;-71
2024/03/24 03:27:49;;;;;;;1999.90;999.90;;;9.60;99.90;;;;;;5033050;28;20025;-67
2024/03/24 03:30:14;;;;;;;1999.90;999.90;;;9.40;99.90;;;;;;5032560;28;20025;-71
2024/03/24 03:32:40;;;;;;;1999.90;999.90;;;9.40;99.90;;;;;;5032904;28;20033;-66
2024/03/24 03:35:06;;;;;;;1999.90;999.90;;;9.30;99.90;;;;;;5032650;28;20066;-67
2024/03/24 03:37:32;;;;;;;1999.90;999.90;;;9.40;99.90;;;;;;5032424;28;20022;-71
2024/03/24 03:39:57;;;;;;;1999.90;999.90;;;9.40;99.90;;;;;;5032915;28;20033;-71
2024/03/24 03:42:23;;;;;;;1999.90;999.90;;;9.40;99.90;;;;;;5032298;28;20064;-71
2024/03/24 03:44:52;;;;;;;1999.90;999.90;;;9.40;99.90;;;;;;5032647;28;20026;-71
2024/03/24 03:47:19;;;;;;;1999.90;999.90;;;9.30;99.90;;;;;;5032541;28;20396;-71
2024/03/24 03:49:50;;;;;;;1999.90;999.90;;;9.40;99.90;;;;;;5032772;28;20407;-67
2024/03/24 03:52:28;;;;;;;1999.90;999.90;;;9.40;99.90;;;;;;5032713;28;20431;-71
2024/03/24 03:55:00;;;;;;;1999.90;999.90;;;9.40;99.90;;;;;;5032796;28;20083;-71
2024/03/24 03:57:28;;;;;;;1999.90;999.90;;;9.50;99.90;;;;;;5032646;28;20018;-66
2024/03/24 03:59:55;;;;;;;1999.90;999.90;;;9.50;99.90;;;;;;5032763;28;20397;-71
2024/03/24 04:02:21;;;;;;;1999.90;999.90;;;9.50;99.90;;;;;;5031983;28;20014;-71
2024/03/24 04:04:47;;;;;;;1999.90;999.90;;;9.50;99.90;;;;;;5031932;28;20556;-71
2024/03/24 04:07:12;;;;;;;1999.90;999.90;;;9.50;99.90;;;;;;5032298;28;20101;-67
2024/03/24 04:09:38;;;;;;;1999.90;999.90;;;9.50;99.90;;;;;;5032570;28;20484;-71
2024/03/24 04:12:05;;;;;;;1999.90;999.90;;;9.50;99.90;;;;;;5032716;28;20026;-66
2024/03/24 04:14:31;;;;;;;1999.90;999.90;;;9.50;99.90;;;;;;5032257;28;20539;-67
2024/03/24 04:16:57;;;;;;;1999.90;999.90;;;9.50;99.90;;;;;;5032575;28;20108;-70
2024/03/24 04:19:22;;;;;;;1999.90;999.90;;;9.50;99.90;;;;;;5032047;28;20065;-71
2024/03/24 04:21:48;;;;;;;1999.90;999.90;;;9.50;99.90;;;;;;5031862;28;20068;-71
2024/03/24 04:24:14;;;;;;;1999.90;999.90;;;9.60;99.90;;;;;;5031972;28;20036;-67
2024/03/24 04:26:39;;;;;;;1999.90;999.90;;;9.60;99.90;;;;;;5032484;28;20026;-70
2024/03/24 04:29:05;;;;;;;1999.90;999.90;;;9.50;99.90;;;;;;5032293;28;20029;-67
2024/03/24 04:31:31;;;;;;;1999.90;999.90;;;9.50;99.90;;;;;;5032248;28;20029;-71
2024/03/24 04:33:56;;;;;;;1999.90;999.90;;;9.50;99.90;;;;;;5032015;28;20025;-67
2024/03/24 04:36:22;;;;;;;1999.90;999.90;;;9.50;99.90;;;;;;5032179;28;20029;-67
2024/03/24 04:38:48;;;;;;;1999.90;999.90;;;9.50;99.90;;;;;;5032030;28;20033;-71
2024/03/24 04:41:13;;;;;;;1999.90;999.90;;;9.40;99.90;;;;;;5031868;28;20554;-71
2024/03/24 04:43:39;;;;;;;1999.90;999.90;;;9.30;99.90;;;;;;5032396;28;20080;-71
2024/03/24 04:46:05;;;;;;;1999.90;999.90;;;9.20;99.90;;;;;;5032377;28;20021;-71
2024/03/24 04:48:31;;;;;;;1999.90;999.90;;;9.10;99.90;;;;;;5032058;28;20053;-66
2024/03/24 04:50:57;;;;;;;1999.90;999.90;;;9.10;99.90;;;;;;5031938;28;20026;-67
2024/03/24 04:53:24;;;;;;;1999.90;999.90;;;9.00;99.90;;;;;;5032027;28;20029;-67
2024/03/24 04:55:50;;;;;;;1999.90;999.90;;;9.00;99.90;;;;;;5034012;28;20052;-66
2024/03/24 04:58:15;;;;;;;1999.90;999.90;;;9.00;99.90;;;;;;5035775;28;20029;-67
2024/03/24 05:00:41;;;;;;;1999.90;999.90;;;9.00;99.90;;;;;;5035438;28;20100;-71
2024/03/24 05:03:06;;;;;;;1999.90;999.90;;;9.00;99.90;;;;;;5035535;28;20021;-70
2024/03/24 05:05:33;;;;;;;1999.90;999.90;;;9.10;99.90;;;;;;5035114;28;20459;-66
2024/03/24 05:07:58;;;;;;;1999.90;999.90;;;9.10;99.90;;;;;;5035589;28;20064;-66
2024/03/24 05:10:24;;;;;;;1999.90;999.90;;;9.10;99.90;;;;;;5035443;28;20488;-70
2024/03/24 05:12:50;;;;;;;1999.90;999.90;;;9.10;99.90;;;;;;5035265;28;20079;-71
2024/03/24 05:15:15;;;;;;;1999.90;999.90;;;9.10;99.90;;;;;;5035255;28;20030;-66
2024/03/24 05:17:42;;;;;;;1999.90;999.90;;;9.10;99.90;;;;;;5035135;28;20073;-70
2024/03/24 05:20:11;;;;;;;1999.90;999.90;;;9.00;99.90;;;;;;5035018;28;20025;-67
2024/03/24 05:22:37;;;;;;;1999.90;999.90;;;8.90;99.90;;;;;;5034480;28;20017;-67
2024/03/24 05:25:06;;;;;;;1999.90;999.90;;;8.90;99.90;;;;;;5034657;28;20064;-67
2024/03/24 05:27:32;;;;;;;1999.90;999.90;;;8.80;99.90;;;;;;5034904;28;20105;-67
2024/03/24 05:29:57;;;;;;;1999.90;999.90;;;8.80;99.90;;;;;;5034989;28;20061;-71
2024/03/24 05:32:23;;;;;;;1999.90;999.90;;;8.80;99.90;;;;;;5034933;28;20032;-67
2024/03/24 05:34:48;;;;;;;1999.90;999.90;;;8.80;99.90;;;;;;5034922;28;20029;-67
2024/03/24 05:37:14;;;;;;;1999.90;999.90;;;8.80;99.90;;;;;;5034637;28;20034;-71
2024/03/24 05:39:43;;;;;;;1999.90;999.90;;;8.80;99.90;;;;;;5034627;28;20030;-71
2024/03/24 05:42:08;;;;;;;1999.90;999.90;;;8.80;99.90;;;;;;5034614;28;20044;-67
2024/03/24 05:44:34;;;;;;;1999.90;999.90;;;8.80;99.90;;;;;;5034907;28;20030;-71
2024/03/24 05:47:00;;;;;;;1999.90;999.90;;;8.80;99.90;;;;;;5034976;28;20014;-67
2024/03/24 05:49:25;;;;;;;1999.90;999.90;;;8.80;99.90;;;;;;5034840;28;20057;-66
2024/03/24 05:51:52;;;;;;;1999.90;999.90;;;8.70;99.90;;;;;;5034670;28;20049;-71
2024/03/24 05:54:17;;;;;;;1999.90;999.90;;;8.70;99.90;;;;;;5033874;28;20475;-70
2024/03/24 05:56:43;;;;;;;1999.90;999.90;;;8.60;99.90;;;;;;5034533;28;20112;-66
2024/03/24 05:59:08;;;;;;;1999.90;999.90;;;8.50;99.90;;;;;;5034637;28;20111;-70
2024/03/24 06:01:34;;;;;;;1999.90;999.90;;;8.50;99.90;;;;;;5034626;28;20373;-66
2024/03/24 06:04:02;;;;;;;1999.90;999.90;;;8.40;99.90;;;;;;5034290;28;20481;-71
2024/03/24 06:06:28;;;;;;;1999.90;999.90;;;8.40;99.90;;;;;;5033548;28;20036;-70
2024/03/24 06:08:53;;;;;;;1999.90;999.90;;;8.30;99.90;;;;;;5033417;28;20025;-66
2024/03/24 06:11:19;;;;;;;1999.90;999.90;;;8.30;99.90;;;;;;5034413;28;20484;-66
2024/03/24 06:13:44;;;;;;;1999.90;999.90;;;8.30;99.90;;;;;;5034355;28;20034;-66
2024/03/24 06:16:13;;;;;;;1999.90;999.90;;;8.30;99.90;;;;;;5034140;28;20037;-70
2024/03/24 06:18:39;;;;;;;1999.90;999.90;;;8.40;99.90;;;;;;5033834;28;20077;-66
2024/03/24 06:21:05;;;;;;;1999.90;999.90;;;8.40;99.90;;;;;;5033631;28;20114;-66
2024/03/24 06:23:31;;;;;;;1999.90;999.90;;;8.50;99.90;;;;;;5033571;28;20100;-66
2024/03/24 06:25:56;;;;;;;1999.90;999.90;;;8.50;99.90;;;;;;5033948;28;20097;-66
2024/03/24 06:28:22;;;;;;;1999.90;999.90;;;8.60;99.90;;;;;;5034032;28;20037;-71
2024/03/24 06:30:52;;;;;;;1999.90;999.90;;;8.70;99.90;;;;;;5033654;28;20014;-71
2024/03/24 06:33:18;;;;;;;1999.90;999.90;;;8.80;99.90;;;;;;5034007;28;20080;-66
2024/03/24 06:35:44;;;;;;;1999.90;999.90;;;8.90;99.90;;;;;;5033568;28;20488;-70
2024/03/24 06:38:09;;;;;;;1999.90;999.90;;;9.00;99.90;;;;;;5033888;28;20061;-66
2024/03/24 06:40:35;;;;;;;1999.90;999.90;;;9.10;99.90;;;;;;5033923;28;20021;-70
2024/03/24 06:43:02;;;;;;;1999.90;999.90;;;9.10;99.90;;;;;;5033288;28;20064;-70
2024/03/24 06:45:34;;;;;;;1999.90;999.90;;;9.20;99.90;;;;;;5033756;28;20075;-70
2024/03/24 06:48:04;;;;;;;1999.90;999.90;;;9.20;99.90;;;;;;5033929;28;20068;-66
2024/03/24 06:50:31;;;;;;;1999.90;999.90;;;9.30;99.90;;;;;;5033532;28;20555;-67
2024/03/24 06:52:56;;;;;;;1999.90;999.90;;;9.30;99.90;;;;;;5033523;28;20029;-67
2024/03/24 06:55:25;;;;;;;1999.90;999.90;;;9.40;99.90;;;;;;5033388;28;20563;-70
2024/03/24 06:57:51;;;;;;;1999.90;999.90;;;9.40;99.90;;;;;;5033662;28;20028;-70
2024/03/24 07:00:18;;;;;;;1999.90;999.90;;;9.40;99.90;;;;;;5033488;28;20045;-66
2024/03/24 07:02:45;;;;;;;1999.90;999.90;;;9.50;99.90;;;;;;5033457;28;20033;-70
2024/03/24 07:05:11;;;;;;;1999.90;999.90;;;9.50;99.90;;;;;;5033274;28;20489;-66
2024/03/24 07:07:37;;;;;;;1999.90;999.90;;;9.60;99.90;;;;;;5032241;28;20017;-71
2024/03/24 07:10:04;;;;;;;1999.90;999.90;;;9.60;99.90;;;;;;5032364;28;20040;-67
2024/03/24 07:12:29;;;;;;;1999.90;999.90;;;9.70;99.90;;;;;;5033143;28;20048;-67
2024/03/24 07:14:55;;;;;;;1999.90;999.90;;;9.70;99.90;;;;;;5033109;28;20029;-70
2024/03/24 07:17:21;;;;;;;1999.90;999.90;;;9.80;99.90;;;;;;5032162;28;20037;-71
2024/03/24 07:19:47;;;;;;;1999.90;999.90;;;9.80;99.90;;;;;;5032820;28;20111;-66
2024/03/24 07:22:12;;;;;;;1999.90;999.90;;;9.90;99.90;;;;;;5032679;28;20026;-71
2024/03/24 07:24:38;;;;;;;1999.90;999.90;;;10.10;99.90;;;;;;5032835;28;20026;-71
2024/03/24 07:27:04;;;;;;;1999.90;999.90;;;10.40;99.90;;;;;;5032824;28;20538;-70
2024/03/24 07:29:30;;;;;;;1999.90;999.90;;;10.50;99.90;;;;;;5032918;28;20029;-71
2024/03/24 07:31:55;;;;;;;1999.90;999.90;;;10.70;99.90;;;;;;5032696;28;20100;-67
2024/03/24 07:34:21;;;;;;;1999.90;999.90;;;10.70;99.90;;;;;;5032583;28;20066;-67
2024/03/24 07:36:47;;;;;;;1999.90;999.90;;;10.40;99.90;;;;;;5032622;28;20029;-71
2024/03/24 07:39:12;;;;;;;1999.90;999.90;;;10.20;99.90;;;;;;5032812;28;20029;-70
2024/03/24 07:41:38;;;;;;;1999.90;999.90;;;9.70;99.90;;;;;;5032624;28;20477;-66
2024/03/24 07:44:03;;;;;;;1999.90;999.90;;;9.60;99.90;;;;;;5032755;28;20435;-66
2024/03/24 07:46:29;;;;;;;1999.90;999.90;;;9.50;99.90;;;;;;5032456;28;20021;-70
2024/03/24 07:48:55;;;;;;;1999.90;999.90;;;9.60;99.90;;;;;;5032509;28;20075;-66
2024/03/24 07:51:21;;;;;;;1999.90;999.90;;;9.70;99.90;;;;;;5031298;28;20072;-71
2024/03/24 07:53:49;;;;;;;1999.90;999.90;;;9.80;99.90;;;;;;5032773;28;20105;-66
2024/03/24 07:56:15;;;;;;;1999.90;999.90;;;10.10;99.90;;;;;;5032535;28;20025;-67
2024/03/24 07:58:44;;;;;;;1999.90;999.90;;;10.80;99.90;;;;;;5033031;28;20040;-71
2024/03/24 08:01:09;;;;;;;1999.90;999.90;;;11.10;99.90;;;;;;5032237;28;20476;-67
2024/03/24 08:03:35;;;;;;;1999.90;999.90;;;11.60;99.90;;;;;;5032819;28;20026;-71
2024/03/24 08:06:01;;;;;;;1999.90;999.90;;;13.50;99.90;;;;;;5032599;28;20436;-72
2024/03/24 08:08:26;;;;;;;1999.90;999.90;;;16.20;99.90;;;;;;5032288;28;20108;-68
2024/03/24 08:10:53;;;;;;;1999.90;999.90;;;18.00;99.90;;;;;;5031638;28;20037;-72
2024/03/24 08:13:19;;;;;;;1999.90;999.90;;;18.40;99.90;;;;;;5032601;28;20029;-72
2024/03/24 08:15:45;;;;;;;1999.90;999.90;;;19.60;99.90;;;;;;5032735;28;20021;-72
2024/03/24 08:18:11;;;;;;;1999.90;999.90;;;20.70;99.90;;;;;;5032024;28;20565;-68
2024/03/24 08:20:46;;;;;;;1999.90;999.90;;;21.80;99.90;;;;;;5032154;28;20029;-68
2024/03/24 08:23:18;;;;;;;1999.90;999.90;;;21.00;99.90;;;;;;5032187;28;20040;-68
2024/03/24 08:25:44;;;;;;;1999.90;999.90;;;21.20;99.90;;;;;;5032558;28;20477;-68
2024/03/24 08:28:10;;;;;;;1999.90;999.90;;;20.70;99.90;;;;;;5032444;28;20025;-70
2024/03/24 08:30:39;;;;;;;1999.90;999.90;;;21.00;99.90;;;;;;5035385;28;20105;-70
2024/03/24 08:33:05;;;;;;;1999.90;999.90;;;20.80;99.90;;;;;;5036138;28;20084;-66
2024/03/24 08:35:31;;;;;;;1999.90;999.90;;;19.40;99.90;;;;;;5036207;28;20029;-69
2024/03/24 08:37:57;;;;;;;1999.90;999.90;;;18.50;99.90;;;;;;5035939;28;20025;-66
2024/03/24 08:40:22;;;;;;;1999.90;999.90;;;17.80;99.90;;;;;;5035763;28;20385;-70
2024/03/24 08:42:48;;;;;;;1999.90;999.90;;;18.30;99.90;;;;;;5035818;28;20373;-69
2024/03/24 08:45:14;;;;;;;1999.90;999.90;;;19.30;99.90;;;;;;5035883;28;20037;-66
2024/03/24 08:47:39;;;;;;;1999.90;999.90;;;18.90;99.90;;;;;;5035998;28;20031;-66
2024/03/24 08:50:05;;;;;;;1999.90;999.90;;;18.30;99.90;;;;;;5035944;28;20029;-66
2024/03/24 08:52:31;;;;;;;1999.90;999.90;;;17.60;99.90;;;;;;5035800;28;20497;-69
2024/03/24 08:54:57;;;;;;;1999.90;999.90;;;17.40;99.90;;;;;;5035357;28;20033;-69
2024/03/24 08:57:22;;;;;;;1999.90;999.90;;;19.50;99.90;;;;;;5035548;28;20069;-66
2024/03/24 08:59:49;;;;;;;1999.90;999.90;;;19.60;99.90;;;;;;5035682;28;20409;-66
2024/03/24 09:02:17;;;;;;;1999.90;999.90;;;19.50;99.90;;;;;;5035530;28;20026;-66
2024/03/24 09:04:43;;;;;;;1999.90;999.90;;;18.70;99.90;;;;;;5035786;28;20447;-69
2024/03/24 09:07:09;;;;;;;1999.90;999.90;;;16.90;99.90;;;;;;5035355;28;20032;-71
2024/03/24 09:09:34;;;;;;;1999.90;999.90;;;16.90;99.90;;;;;;5035389;28;20169;-67
2024/03/24 09:12:00;;;;;;;1999.90;999.90;;;16.70;99.90;;;;;;5035180;28;20026;-67
2024/03/24 09:14:26;;;;;;;1999.90;999.90;;;15.70;99.90;;;;;;5035115;28;20021;-71
2024/03/24 09:16:51;;;;;;;1999.90;999.90;;;16.40;99.90;;;;;;5035398;28;20044;-68
2024/03/24 09:19:17;;;;;;;1999.90;999.90;;;18.60;99.90;;;;;;5034956;28;20049;-71
2024/03/24 09:21:43;;;;;;;1999.90;999.90;;;18.20;99.90;;;;;;5035082;28;20021;-71
2024/03/24 09:24:08;;;;;;;1999.90;999.90;;;17.00;99.90;;;;;;5034716;28;20055;-68
2024/03/24 09:26:35;;;;;;;1999.90;999.90;;;15.40;99.90;;;;;;5035263;28;20022;-67
2024/03/24 09:29:01;;;;;;;1999.90;999.90;;;15.00;99.90;;;;;;5035074;28;20057;-67
2024/03/24 09:31:27;;;;;;;1999.90;999.90;;;15.50;99.90;;;;;;5034951;28;20083;-71
2024/03/24 09:33:53;;;;;;;1999.90;999.90;;;15.80;99.90;;;;;;5034709;28;20400;-67
2024/03/24 09:36:19;;;;;;;1999.90;999.90;;;15.10;99.90;;;;;;5034089;28;20034;-67
2024/03/24 09:38:45;;;;;;;1999.90;999.90;;;15.00;99.90;;;;;;5035053;28;20030;-67
2024/03/24 09:41:11;;;;;;;1999.90;999.90;;;14.50;99.90;;;;;;5033871;28;20025;-67
2024/03/24 09:43:37;;;;;;;1999.90;999.90;;;14.10;99.90;;;;;;5035256;28;20491;-71
2024/03/24 09:46:03;;;;;;;1999.90;999.90;;;13.90;99.90;;;;;;5034963;28;20029;-70
2024/03/24 09:48:30;;;;;;;1999.90;999.90;;;13.60;99.90;;;;;;5034630;28;20228;-67
2024/03/24 09:50:56;;;;;;;1999.90;999.90;;;13.50;99.90;;;;;;5034782;28;20029;-71
2024/03/24 09:53:22;;;;;;;1999.90;999.90;;;13.50;99.90;;;;;;5034848;28;20033;-67
2024/03/24 09:55:49;;;;;;;1999.90;999.90;;;13.80;99.90;;;;;;5034507;28;20028;-67
2024/03/24 09:58:18;;;;;;;1999.90;999.90;;;14.20;99.90;;;;;;5034662;28;20022;-71
2024/03/24 10:00:44;;;;;;;1999.90;999.90;;;15.00;99.90;;;;;;5034478;28;20127;-71
2024/03/24 10:03:09;;;;;;;1999.90;999.90;;;14.90;99.90;;;;;;5034450;28;20100;-70
2024/03/24 10:05:36;;;;;;;1999.90;999.90;;;15.70;99.90;;;;;;5034054;28;20033;-67
2024/03/24 10:08:02;;;;;;;1999.90;999.90;;;15.30;99.90;;;;;;5033939;28;20071;-68
2024/03/24 10:10:29;;;;;;;1999.90;999.90;;;16.20;99.90;;;;;;5033903;28;20061;-71
2024/03/24 10:12:55;;;;;;;1999.90;999.90;;;16.00;99.90;;;;;;5034267;28;20025;-67
2024/03/24 10:15:25;;;;;;;1999.90;999.90;;;15.50;99.90;;;;;;5034486;28;20033;-67
2024/03/24 10:18:06;;;;;;;1999.90;999.90;;;15.10;99.90;;;;;;5034194;28;20045;-67
2024/03/24 10:20:33;;;;;;;1999.90;999.90;;;15.30;99.90;;;;;;5033671;28;20025;-67
2024/03/24 10:22:59;;;;;;;1999.90;999.90;;;15.50;99.90;;;;;;5033710;28;20061;-69
2024/03/24 10:25:29;;;;;;;1999.90;999.90;;;15.10;99.90;;;;;;5033801;28;20033;-67
2024/03/24 10:27:56;;;;;;;1999.90;999.90;;;14.90;99.90;;;;;;5034041;28;20017;-67
2024/03/24 10:30:23;;;;;;;1999.90;999.90;;;15.10;99.90;;;;;;5033767;28;20030;-71
2024/03/24 10:32:49;;;;;;;1999.90;999.90;;;15.80;99.90;;;;;;5033941;28;20021;-67
2024/03/24 10:35:15;;;;;;;1999.90;999.90;;;15.60;99.90;;;;;;5033672;28;20053;-70
2024/03/24 10:37:41;;;;;;;1999.90;999.90;;;15.20;99.90;;;;;;5033277;28;20029;-67
2024/03/24 10:40:12;;;;;;;1999.90;999.90;;;14.40;99.90;;;;;;5033796;28;20036;-67
2024/03/24 10:42:46;;;;;;;1999.90;999.90;;;14.10;99.90;;;;;;5033509;28;20488;-67
2024/03/24 10:45:14;;;;;;;1999.90;999.90;;;13.80;99.90;;;;;;5033721;28;20037;-67
2024/03/24 10:47:41;;;;;;;1999.90;999.90;;;13.70;99.90;;;;;;5033886;28;20029;-67
2024/03/24 10:50:13;;;;;;;1999.90;999.90;;;14.10;99.90;;;;;;5033428;28;20024;-70
2024/03/24 10:52:42;;;;;;;1999.90;999.90;;;14.20;99.90;;;;;;5033407;28;20512;-67
2024/03/24 10:55:12;;;;;;;1999.90;999.90;;;14.20;99.90;;;;;;5033233;28;20427;-67
2024/03/24 10:57:41;;;;;;;1999.90;999.90;;;13.80;99.90;;;;;;5033113;28;20041;-67
2024/03/24 11:00:07;;;;;;;1999.90;999.90;;;14.00;99.90;;;;;;5033284;28;20526;-67
2024/03/24 11:02:33;;;;;;;1999.90;999.90;;;14.40;99.90;;;;;;5033429;28;20033;-71
2024/03/24 11:05:01;;;;;;;1999.90;999.90;;;14.70;99.90;;;;;;5033218;28;20029;-68
2024/03/24 11:07:28;;;;;;;1999.90;999.90;;;15.10;99.90;;;;;;5033204;28;20029;-67
2024/03/24 11:09:55;;;;;;;1999.90;999.90;;;14.60;99.90;;;;;;5032964;28;20034;-71
2024/03/24 11:12:21;;;;;;;1999.90;999.90;;;14.20;99.90;;;;;;5033393;28;20476;-71
2024/03/24 11:14:46;;;;;;;1999.90;999.90;;;14.20;99.90;;;;;;5033159;28;20496;-67
2024/03/24 11:17:12;;;;;;;1999.90;999.90;;;14.40;99.90;;;;;;5032731;28;20069;-71
2024/03/24 11:19:48;;;;;;;1999.90;999.90;;;14.70;99.90;;;;;;5032632;28;20408;-71
2024/03/24 11:22:20;;;;;;;1999.90;999.90;;;15.40;99.90;;;;;;5032469;28;20065;-71
2024/03/24 11:24:46;;;;;;;1999.90;999.90;;;15.90;99.90;;;;;;5032811;28;20025;-67
2024/03/24 11:27:29;;;;;;;1999.90;999.90;;;16.30;99.90;;;;;;5032905;28;20021;-71
2024/03/24 11:29:55;;;;;;;1999.90;999.90;;;16.10;99.90;;;;;;5032853;28;20033;-67
2024/03/24 11:32:23;;;;;;;1999.90;999.90;;;15.90;99.90;;;;;;5032728;28;20128;-71
2024/03/24 11:34:57;;;;;;;1999.90;999.90;;;15.60;99.90;;;;;;5032748;28;20036;-71
2024/03/24 11:37:31;;;;;;;1999.90;999.90;;;15.60;99.90;;;;;;5032432;28;20037;-67
2024/03/24 11:39:58;;;;;;;1999.90;999.90;;;15.50;99.90;;;;;;5032803;28;20053;-67
2024/03/24 11:42:31;;;;;;;1999.90;999.90;;;15.60;99.90;;;;;;5032480;28;20040;-71
2024/03/24 11:45:16;;;;;;;1999.90;999.90;;;15.10;99.90;;;;;;5032762;28;20388;-67
2024/03/24 11:47:44;;;;;;;1999.90;999.90;;;14.90;99.90;;;;;;5032579;28;20026;-67
2024/03/24 11:50:10;;;;;;;1999.90;999.90;;;15.00;99.90;;;;;;5032735;28;20076;-67
2024/03/24 11:52:36;;;;;;;1999.90;999.90;;;14.40;99.90;;;;;;5032435;28;20436;-67
2024/03/24 11:55:03;;;;;;;1999.90;999.90;;;14.00;99.90;;;;;;5032577;28;20036;-70
2024/03/24 11:57:28;;;;;;;1999.90;999.90;;;14.00;99.90;;;;;;5032584;28;20029;-70
2024/03/24 11:59:55;;;;;;;1999.90;999.90;;;14.00;99.90;;;;;;5032201;28;20512;-70